No particular awareness of the weather is required.    There are no Weather-warnings


Meteo18 Weather Cam more information Meteo18 Weather Cam


Thunder radar more information blitzortung!


Rain radar more information rain snow radar


Visit our other weather sites:

Template documentation
and downloads

And another site



Weather Underground History page Text

Daily Summary for March 9, 2017 Units:  Both    English   Metric
« Previous Day
Next Day »
Daily Weekly Monthly Yearly Custom
  High: Low: Average:
Temperature: 57 °F /  13.9 °C 48.7 °F /  9.3 °C 52.5 °F /  11.4 °C
Dew Point: 49.8 °F /  9.9 °C 46 °F /  7.8 °C 48.6 °F /  9.2 °C
Humidity: 96 % 69 % 87 %
Wind Speed: 20 mph /  32.2 km/h - 5.8 mph /  9.4 km/h
Wind Gust: 23 mph /  37.0 km/h - -
Wind:- - WSW
Pressure: 30.4 in /  1027.7 hPa 30.3 in /  1024.6 hPa -
Precipitation: 0 in /  0.0 mm    
Historical Graphs
 
 
Tabular Data for March 9, 2017
Time Temperature Dew Point Pressure Wind Wind Speed Wind Gust Humidity Rainfall Rate (Hourly)
00:02 51.3 °F /  10.7 °C 49.8 °F /  9.9 °C 30.3 in /  1024.9 hPa WNW 13 mph /  20.9 km/h 15 mph /  24.1 km/h 95 % 0 in /  0.0 mm
00:07 51.1 °F /  10.6 °C 49.6 °F /  9.8 °C 30.3 in /  1024.9 hPa West 10 mph /  16.1 km/h 16 mph /  25.7 km/h 95 % 0 in /  0.0 mm
00:12 51.1 °F /  10.6 °C 49.6 °F /  9.8 °C 30.3 in /  1024.9 hPa WNW 7 mph /  11.3 km/h 17 mph /  27.4 km/h 95 % 0 in /  0.0 mm
00:17 51.1 °F /  10.6 °C 49.6 °F /  9.8 °C 30.3 in /  1024.9 hPa WSW 6 mph /  9.7 km/h 17 mph /  27.4 km/h 95 % 0 in /  0.0 mm
00:22 51.1 °F /  10.6 °C 49.6 °F /  9.8 °C 30.3 in /  1024.9 hPa West 12 mph /  19.3 km/h 17 mph /  27.4 km/h 95 % 0 in /  0.0 mm
00:27 51.1 °F /  10.6 °C 49.6 °F /  9.8 °C 30.3 in /  1024.9 hPa West 11 mph /  17.7 km/h 15 mph /  24.1 km/h 95 % 0 in /  0.0 mm
00:32 50.9 °F /  10.5 °C 49.5 °F /  9.7 °C 30.3 in /  1024.6 hPa SW 8 mph /  12.9 km/h 15 mph /  24.1 km/h 95 % 0 in /  0.0 mm
00:37 50.9 °F /  10.5 °C 49.5 °F /  9.7 °C 30.3 in /  1024.9 hPa West 15 mph /  24.1 km/h 16 mph /  25.7 km/h 95 % 0 in /  0.0 mm
00:42 51.1 °F /  10.6 °C 49.6 °F /  9.8 °C 30.3 in /  1024.9 hPa West 6 mph /  9.7 km/h 20 mph /  32.2 km/h 95 % 0 in /  0.0 mm
00:47 51.1 °F /  10.6 °C 49.6 °F /  9.8 °C 30.3 in /  1024.9 hPa WSW 12 mph /  19.3 km/h 20 mph /  32.2 km/h 95 % 0 in /  0.0 mm
00:52 50.9 °F /  10.5 °C 49.5 °F /  9.7 °C 30.3 in /  1024.9 hPa West 9 mph /  14.5 km/h 20 mph /  32.2 km/h 95 % 0 in /  0.0 mm
00:57 50.9 °F /  10.5 °C 49.5 °F /  9.7 °C 30.3 in /  1024.9 hPa West 8 mph /  12.9 km/h 19 mph /  30.6 km/h 95 % 0 in /  0.0 mm
01:02 50.9 °F /  10.5 °C 49.5 °F /  9.7 °C 30.3 in /  1024.9 hPa West 8 mph /  12.9 km/h 16 mph /  25.7 km/h 95 % 0 in /  0.0 mm
01:07 50.7 °F /  10.4 °C 49.6 °F /  9.8 °C 30.3 in /  1024.9 hPa WNW 16 mph /  25.7 km/h 16 mph /  25.7 km/h 96 % 0 in /  0.0 mm
01:12 50.9 °F /  10.5 °C 49.8 °F /  9.9 °C 30.3 in /  1024.9 hPa WSW 16 mph /  25.7 km/h 21 mph /  33.8 km/h 96 % 0 in /  0.0 mm
01:17 50.9 °F /  10.5 °C 49.5 °F /  9.7 °C 30.3 in /  1024.9 hPa WSW 12 mph /  19.3 km/h 22 mph /  35.4 km/h 95 % 0 in /  0.0 mm
01:22 50.9 °F /  10.5 °C 49.5 °F /  9.7 °C 30.3 in /  1024.9 hPa WSW 12 mph /  19.3 km/h 22 mph /  35.4 km/h 95 % 0 in /  0.0 mm
01:27 50.9 °F /  10.5 °C 49.5 °F /  9.7 °C 30.3 in /  1024.9 hPa West 9 mph /  14.5 km/h 22 mph /  35.4 km/h 95 % 0 in /  0.0 mm
01:32 50.9 °F /  10.5 °C 49.5 °F /  9.7 °C 30.3 in /  1024.9 hPa WSW 10 mph /  16.1 km/h 19 mph /  30.6 km/h 95 % 0 in /  0.0 mm
01:37 50.7 °F /  10.4 °C 49.3 °F /  9.6 °C 30.3 in /  1025.3 hPa WSW 12 mph /  19.3 km/h 17 mph /  27.4 km/h 95 % 0 in /  0.0 mm
01:42 50.9 °F /  10.5 °C 49.5 °F /  9.7 °C 30.3 in /  1025.3 hPa WSW 17 mph /  27.4 km/h 18 mph /  29.0 km/h 95 % 0 in /  0.0 mm
01:52 50.9 °F /  10.5 °C 49.5 °F /  9.7 °C 30.3 in /  1025.3 hPa SW 10 mph /  16.1 km/h 21 mph /  33.8 km/h 95 % 0 in /  0.0 mm
01:57 50.9 °F /  10.5 °C 49.5 °F /  9.7 °C 30.3 in /  1024.9 hPa WSW 9 mph /  14.5 km/h 21 mph /  33.8 km/h 95 % 0 in /  0.0 mm
02:02 50.7 °F /  10.4 °C 49.3 °F /  9.6 °C 30.3 in /  1024.9 hPa West 14 mph /  22.5 km/h 19 mph /  30.6 km/h 95 % 0 in /  0.0 mm
02:07 50.9 °F /  10.5 °C 49.5 °F /  9.7 °C 30.3 in /  1024.9 hPa WSW 9 mph /  14.5 km/h 19 mph /  30.6 km/h 95 % 0 in /  0.0 mm
02:12 50.7 °F /  10.4 °C 49.3 °F /  9.6 °C 30.3 in /  1024.9 hPa WNW 10 mph /  16.1 km/h 18 mph /  29.0 km/h 95 % 0 in /  0.0 mm
02:17 50.7 °F /  10.4 °C 49.3 °F /  9.6 °C 30.3 in /  1024.9 hPa SSW 9 mph /  14.5 km/h 18 mph /  29.0 km/h 95 % 0 in /  0.0 mm
02:22 50.7 °F /  10.4 °C 49.3 °F /  9.6 °C 30.3 in /  1024.9 hPa WSW 6 mph /  9.7 km/h 17 mph /  27.4 km/h 95 % 0 in /  0.0 mm
02:27 50.7 °F /  10.4 °C 49.3 °F /  9.6 °C 30.3 in /  1024.9 hPa West 16 mph /  25.7 km/h 17 mph /  27.4 km/h 95 % 0 in /  0.0 mm
02:32 50.7 °F /  10.4 °C 49.3 °F /  9.6 °C 30.3 in /  1024.9 hPa West 6 mph /  9.7 km/h 18 mph /  29.0 km/h 95 % 0 in /  0.0 mm
02:42 50.5 °F /  10.3 °C 49.1 °F /  9.5 °C 30.3 in /  1024.9 hPa West 12 mph /  19.3 km/h 18 mph /  29.0 km/h 95 % 0 in /  0.0 mm
02:47 50.5 °F /  10.3 °C 49.1 °F /  9.5 °C 30.3 in /  1024.9 hPa West 10 mph /  16.1 km/h 18 mph /  29.0 km/h 95 % 0 in /  0.0 mm
02:52 50.5 °F /  10.3 °C 49.5 °F /  9.7 °C 30.3 in /  1024.9 hPa West 9 mph /  14.5 km/h 18 mph /  29.0 km/h 96 % 0 in /  0.0 mm
02:57 50.5 °F /  10.3 °C 49.5 °F /  9.7 °C 30.3 in /  1024.9 hPa West 7 mph /  11.3 km/h 18 mph /  29.0 km/h 96 % 0 in /  0.0 mm
03:02 50.5 °F /  10.3 °C 49.5 °F /  9.7 °C 30.3 in /  1024.9 hPa WSW 6 mph /  9.7 km/h 17 mph /  27.4 km/h 96 % 0 in /  0.0 mm
03:07 50.4 °F /  10.2 °C 49.3 °F /  9.6 °C 30.3 in /  1024.9 hPa WSW 10 mph /  16.1 km/h 17 mph /  27.4 km/h 96 % 0 in /  0.0 mm
03:12 50.4 °F /  10.2 °C 49.3 °F /  9.6 °C 30.3 in /  1024.9 hPa WSW 5 mph /  8.0 km/h 16 mph /  25.7 km/h 96 % 0 in /  0.0 mm
03:17 50.4 °F /  10.2 °C 49.3 °F /  9.6 °C 30.3 in /  1025.3 hPa SW 7 mph /  11.3 km/h 18 mph /  29.0 km/h 96 % 0 in /  0.0 mm
03:22 50.4 °F /  10.2 °C 49.3 °F /  9.6 °C 30.3 in /  1025.3 hPa West 6 mph /  9.7 km/h 18 mph /  29.0 km/h 96 % 0 in /  0.0 mm
03:27 50.4 °F /  10.2 °C 49.3 °F /  9.6 °C 30.3 in /  1025.3 hPa WSW 3 mph /  4.8 km/h 18 mph /  29.0 km/h 96 % 0 in /  0.0 mm
03:32 50.4 °F /  10.2 °C 49.3 °F /  9.6 °C 30.3 in /  1025.3 hPa West 7 mph /  11.3 km/h 12 mph /  19.3 km/h 96 % 0 in /  0.0 mm
03:42 50.4 °F /  10.2 °C 49.3 °F /  9.6 °C 30.3 in /  1025.3 hPa WSW 8 mph /  12.9 km/h 12 mph /  19.3 km/h 96 % 0 in /  0.0 mm
03:47 50.4 °F /  10.2 °C 49.3 °F /  9.6 °C 30.3 in /  1025.3 hPa WSW 10 mph /  16.1 km/h 12 mph /  19.3 km/h 96 % 0 in /  0.0 mm
03:52 50.4 °F /  10.2 °C 49.3 °F /  9.6 °C 30.3 in /  1025.3 hPa West 9 mph /  14.5 km/h 11 mph /  17.7 km/h 96 % 0 in /  0.0 mm
03:57 50.4 °F /  10.2 °C 49.3 °F /  9.6 °C 30.3 in /  1025.3 hPa West 6 mph /  9.7 km/h 12 mph /  19.3 km/h 96 % 0 in /  0.0 mm
04:02 50.4 °F /  10.2 °C 49.3 °F /  9.6 °C 30.3 in /  1025.3 hPa WSW 5 mph /  8.0 km/h 16 mph /  25.7 km/h 96 % 0 in /  0.0 mm
04:07 50.4 °F /  10.2 °C 49.3 °F /  9.6 °C 30.3 in /  1024.9 hPa West 9 mph /  14.5 km/h 16 mph /  25.7 km/h 96 % 0 in /  0.0 mm
04:12 50.2 °F /  10.1 °C 49.1 °F /  9.5 °C 30.3 in /  1025.3 hPa WSW 8 mph /  12.9 km/h 18 mph /  29.0 km/h 96 % 0 in /  0.0 mm
04:17 50.2 °F /  10.1 °C 49.1 °F /  9.5 °C 30.3 in /  1025.3 hPa WSW 7 mph /  11.3 km/h 18 mph /  29.0 km/h 96 % 0 in /  0.0 mm
04:22 50.2 °F /  10.1 °C 49.1 °F /  9.5 °C 30.3 in /  1025.3 hPa West 4 mph /  6.4 km/h 11 mph /  17.7 km/h 96 % 0 in /  0.0 mm
04:27 50.2 °F /  10.1 °C 49.1 °F /  9.5 °C 30.3 in /  1025.3 hPa WSW 10 mph /  16.1 km/h 11 mph /  17.7 km/h 96 % 0 in /  0.0 mm
04:32 50.2 °F /  10.1 °C 49.1 °F /  9.5 °C 30.3 in /  1025.3 hPa Calm   14 mph /  22.5 km/h 96 % 0 in /  0.0 mm
04:37 50.2 °F /  10.1 °C 49.1 °F /  9.5 °C 30.3 in /  1025.3 hPa West 2 mph /  3.2 km/h 15 mph /  24.1 km/h 96 % 0 in /  0.0 mm
04:42 50.2 °F /  10.1 °C 49.1 °F /  9.5 °C 30.3 in /  1025.3 hPa WSW 1 mph /  1.6 km/h 15 mph /  24.1 km/h 96 % 0 in /  0.0 mm
04:47 50 °F /  10.0 °C 48.9 °F /  9.4 °C 30.3 in /  1025.3 hPa West 5 mph /  8.0 km/h 15 mph /  24.1 km/h 96 % 0 in /  0.0 mm
04:52 50 °F /  10.0 °C 48.9 °F /  9.4 °C 30.3 in /  1025.3 hPa West 5 mph /  8.0 km/h 15 mph /  24.1 km/h 96 % 0 in /  0.0 mm
04:57 49.8 °F /  9.9 °C 48.7 °F /  9.3 °C 30.3 in /  1025.3 hPa SW 3 mph /  4.8 km/h 13 mph /  20.9 km/h 96 % 0 in /  0.0 mm
05:02 49.8 °F /  9.9 °C 48.7 °F /  9.3 °C 30.3 in /  1025.3 hPa SW 3 mph /  4.8 km/h 13 mph /  20.9 km/h 96 % 0 in /  0.0 mm
05:07 49.8 °F /  9.9 °C 48.7 °F /  9.3 °C 30.3 in /  1025.6 hPa WSW 6 mph /  9.7 km/h 13 mph /  20.9 km/h 96 % 0 in /  0.0 mm
05:12 49.8 °F /  9.9 °C 48.7 °F /  9.3 °C 30.3 in /  1025.3 hPa SW 10 mph /  16.1 km/h 13 mph /  20.9 km/h 96 % 0 in /  0.0 mm
05:17 49.6 °F /  9.8 °C 48.6 °F /  9.2 °C 30.3 in /  1025.3 hPa SSW 4 mph /  6.4 km/h 12 mph /  19.3 km/h 96 % 0 in /  0.0 mm
05:22 49.6 °F /  9.8 °C 48.6 °F /  9.2 °C 30.3 in /  1025.3 hPa WSW 3 mph /  4.8 km/h 12 mph /  19.3 km/h 96 % 0 in /  0.0 mm
05:27 49.6 °F /  9.8 °C 48.6 °F /  9.2 °C 30.3 in /  1025.3 hPa WNW 11 mph /  17.7 km/h 12 mph /  19.3 km/h 96 % 0 in /  0.0 mm
05:32 49.6 °F /  9.8 °C 48.6 °F /  9.2 °C 30.3 in /  1025.3 hPa SW 5 mph /  8.0 km/h 12 mph /  19.3 km/h 96 % 0 in /  0.0 mm
05:37 49.5 °F /  9.7 °C 48.4 °F /  9.1 °C 30.3 in /  1025.3 hPa SW 8 mph /  12.9 km/h 13 mph /  20.9 km/h 96 % 0 in /  0.0 mm
05:42 49.5 °F /  9.7 °C 48.4 °F /  9.1 °C 30.3 in /  1025.3 hPa West 4 mph /  6.4 km/h 13 mph /  20.9 km/h 96 % 0 in /  0.0 mm
05:47 49.5 °F /  9.7 °C 48.4 °F /  9.1 °C 30.3 in /  1025.6 hPa WSW 8 mph /  12.9 km/h 13 mph /  20.9 km/h 96 % 0 in /  0.0 mm
05:52 49.5 °F /  9.7 °C 48.4 °F /  9.1 °C 30.3 in /  1025.6 hPa West 5 mph /  8.0 km/h 13 mph /  20.9 km/h 96 % 0 in /  0.0 mm
05:57 49.5 °F /  9.7 °C 48.4 °F /  9.1 °C 30.3 in /  1025.3 hPa WSW 8 mph /  12.9 km/h 16 mph /  25.7 km/h 96 % 0 in /  0.0 mm
06:02 49.5 °F /  9.7 °C 48 °F /  8.9 °C 30.3 in /  1025.6 hPa WSW 11 mph /  17.7 km/h 16 mph /  25.7 km/h 95 % 0 in /  0.0 mm
06:07 49.5 °F /  9.7 °C 48 °F /  8.9 °C 30.3 in /  1025.6 hPa WSW 9 mph /  14.5 km/h 12 mph /  19.3 km/h 95 % 0 in /  0.0 mm
06:12 49.6 °F /  9.8 °C 48 °F /  8.9 °C 30.3 in /  1025.6 hPa SW 9 mph /  14.5 km/h 12 mph /  19.3 km/h 94 % 0 in /  0.0 mm
06:17 49.5 °F /  9.7 °C 47.8 °F /  8.8 °C 30.3 in /  1025.6 hPa SW 9 mph /  14.5 km/h 14 mph /  22.5 km/h 94 % 0 in /  0.0 mm
06:22 49.6 °F /  9.8 °C 48 °F /  8.9 °C 30.3 in /  1025.6 hPa SW 6 mph /  9.7 km/h 14 mph /  22.5 km/h 94 % 0 in /  0.0 mm
06:32 49.5 °F /  9.7 °C 47.8 °F /  8.8 °C 30.3 in /  1026.0 hPa WSW 10 mph /  16.1 km/h 15 mph /  24.1 km/h 94 % 0 in /  0.0 mm
06:42 49.5 °F /  9.7 °C 47.8 °F /  8.8 °C 30.3 in /  1026.0 hPa SW 6 mph /  9.7 km/h 15 mph /  24.1 km/h 94 % 0 in /  0.0 mm
06:52 49.5 °F /  9.7 °C 47.8 °F /  8.8 °C 30.3 in /  1026.0 hPa SW 3 mph /  4.8 km/h 12 mph /  19.3 km/h 94 % 0 in /  0.0 mm
07:02 49.3 °F /  9.6 °C 47.7 °F /  8.7 °C 30.3 in /  1026.0 hPa SW 4 mph /  6.4 km/h 10 mph /  16.1 km/h 94 % 0 in /  0.0 mm
07:07 49.3 °F /  9.6 °C 47.7 °F /  8.7 °C 30.3 in /  1026.0 hPa SSW 2 mph /  3.2 km/h 12 mph /  19.3 km/h 94 % 0 in /  0.0 mm
07:12 49.3 °F /  9.6 °C 47.7 °F /  8.7 °C 30.3 in /  1026.0 hPa SSW 7 mph /  11.3 km/h 12 mph /  19.3 km/h 94 % 0 in /  0.0 mm
07:17 49.3 °F /  9.6 °C 47.3 °F /  8.5 °C 30.3 in /  1026.0 hPa WSW 5 mph /  8.0 km/h 15 mph /  24.1 km/h 93 % 0 in /  0.0 mm
07:22 49.3 °F /  9.6 °C 47.3 °F /  8.5 °C 30.3 in /  1025.6 hPa SW 6 mph /  9.7 km/h 15 mph /  24.1 km/h 93 % 0 in /  0.0 mm
07:32 49.3 °F /  9.6 °C 47.3 °F /  8.5 °C 30.3 in /  1025.6 hPa SW 5 mph /  8.0 km/h 15 mph /  24.1 km/h 93 % 0 in /  0.0 mm
07:37 49.1 °F /  9.5 °C 47.1 °F /  8.4 °C 30.3 in /  1025.6 hPa SSW 5 mph /  8.0 km/h 11 mph /  17.7 km/h 93 % 0 in /  0.0 mm
07:42 49.1 °F /  9.5 °C 47.1 °F /  8.4 °C 30.3 in /  1025.6 hPa SW 10 mph /  16.1 km/h 11 mph /  17.7 km/h 93 % 0 in /  0.0 mm
07:47 49.1 °F /  9.5 °C 47.1 °F /  8.4 °C 30.3 in /  1025.6 hPa SSW 8 mph /  12.9 km/h 12 mph /  19.3 km/h 93 % 0 in /  0.0 mm
07:57 48.9 °F /  9.4 °C 46.9 °F /  8.3 °C 30.3 in /  1025.6 hPa SW 8 mph /  12.9 km/h 12 mph /  19.3 km/h 93 % 0 in /  0.0 mm
08:02 48.9 °F /  9.4 °C 46.9 °F /  8.3 °C 30.3 in /  1025.6 hPa SW 9 mph /  14.5 km/h 12 mph /  19.3 km/h 93 % 0 in /  0.0 mm
08:07 48.9 °F /  9.4 °C 46.9 °F /  8.3 °C 30.3 in /  1025.6 hPa SW 6 mph /  9.7 km/h 12 mph /  19.3 km/h 93 % 0 in /  0.0 mm
08:12 48.9 °F /  9.4 °C 46.9 °F /  8.3 °C 30.3 in /  1025.6 hPa SW 6 mph /  9.7 km/h 12 mph /  19.3 km/h 93 % 0 in /  0.0 mm
08:17 48.9 °F /  9.4 °C 46.9 °F /  8.3 °C 30.3 in /  1025.6 hPa SW 9 mph /  14.5 km/h 12 mph /  19.3 km/h 93 % 0 in /  0.0 mm
08:22 48.9 °F /  9.4 °C 46.9 °F /  8.3 °C 30.3 in /  1026.0 hPa SSW 6 mph /  9.7 km/h 12 mph /  19.3 km/h 93 % 0 in /  0.0 mm
08:27 48.9 °F /  9.4 °C 46.9 °F /  8.3 °C 30.3 in /  1026.0 hPa SW 7 mph /  11.3 km/h 12 mph /  19.3 km/h 93 % 0 in /  0.0 mm
08:32 48.9 °F /  9.4 °C 46.9 °F /  8.3 °C 30.3 in /  1026.0 hPa SW 7 mph /  11.3 km/h 12 mph /  19.3 km/h 93 % 0 in /  0.0 mm
08:37 48.9 °F /  9.4 °C 46.9 °F /  8.3 °C 30.3 in /  1026.0 hPa SSW 5 mph /  8.0 km/h 12 mph /  19.3 km/h 93 % 0 in /  0.0 mm
08:42 48.9 °F /  9.4 °C 46.9 °F /  8.3 °C 30.3 in /  1026.0 hPa West 3 mph /  4.8 km/h 12 mph /  19.3 km/h 93 % 0 in /  0.0 mm
08:47 48.7 °F /  9.3 °C 47.1 °F /  8.4 °C 30.3 in /  1026.3 hPa SW 2 mph /  3.2 km/h 11 mph /  17.7 km/h 94 % 0 in /  0.0 mm
08:52 48.7 °F /  9.3 °C 47.1 °F /  8.4 °C 30.3 in /  1026.3 hPa SW 4 mph /  6.4 km/h 11 mph /  17.7 km/h 94 % 0 in /  0.0 mm
08:57 48.7 °F /  9.3 °C 47.1 °F /  8.4 °C 30.3 in /  1026.3 hPa SW 2 mph /  3.2 km/h 8 mph /  12.9 km/h 94 % 0 in /  0.0 mm
09:02 48.7 °F /  9.3 °C 47.1 °F /  8.4 °C 30.3 in /  1026.3 hPa SSW 4 mph /  6.4 km/h 8 mph /  12.9 km/h 94 % 0 in /  0.0 mm
09:12 48.7 °F /  9.3 °C 47.3 °F /  8.5 °C 30.3 in /  1026.3 hPa SW 4 mph /  6.4 km/h 9 mph /  14.5 km/h 95 % 0 in /  0.0 mm
09:17 48.7 °F /  9.3 °C 47.3 °F /  8.5 °C 30.3 in /  1026.6 hPa WSW 2 mph /  3.2 km/h 9 mph /  14.5 km/h 95 % 0 in /  0.0 mm
09:22 48.7 °F /  9.3 °C 47.1 °F /  8.4 °C 30.3 in /  1026.6 hPa SW 7 mph /  11.3 km/h 9 mph /  14.5 km/h 94 % 0 in /  0.0 mm
09:27 48.9 °F /  9.4 °C 47.3 °F /  8.5 °C 30.3 in /  1026.3 hPa SSW 6 mph /  9.7 km/h 9 mph /  14.5 km/h 94 % 0 in /  0.0 mm
09:32 48.9 °F /  9.4 °C 47.3 °F /  8.5 °C 30.3 in /  1026.6 hPa SW 5 mph /  8.0 km/h 9 mph /  14.5 km/h 94 % 0 in /  0.0 mm
09:37 48.9 °F /  9.4 °C 47.3 °F /  8.5 °C 30.3 in /  1026.3 hPa SW 5 mph /  8.0 km/h 9 mph /  14.5 km/h 94 % 0 in /  0.0 mm
09:42 48.9 °F /  9.4 °C 47.3 °F /  8.5 °C 30.3 in /  1026.6 hPa SW 4 mph /  6.4 km/h 9 mph /  14.5 km/h 94 % 0 in /  0.0 mm
09:47 49.1 °F /  9.5 °C 47.5 °F /  8.6 °C 30.3 in /  1026.6 hPa West 7 mph /  11.3 km/h 10 mph /  16.1 km/h 94 % 0 in /  0.0 mm
09:52 49.1 °F /  9.5 °C 47.5 °F /  8.6 °C 30.3 in /  1026.6 hPa West 5 mph /  8.0 km/h 10 mph /  16.1 km/h 94 % 0 in /  0.0 mm
09:57 49.1 °F /  9.5 °C 47.1 °F /  8.4 °C 30.3 in /  1026.6 hPa WSW 9 mph /  14.5 km/h 13 mph /  20.9 km/h 93 % 0 in /  0.0 mm
10:02 49.3 °F /  9.6 °C 47.3 °F /  8.5 °C 30.3 in /  1026.6 hPa West 2 mph /  3.2 km/h 13 mph /  20.9 km/h 93 % 0 in /  0.0 mm
10:12 49.5 °F /  9.7 °C 47.5 °F /  8.6 °C 30.3 in /  1026.6 hPa WSW 5 mph /  8.0 km/h 11 mph /  17.7 km/h 93 % 0 in /  0.0 mm
10:17 49.5 °F /  9.7 °C 47.5 °F /  8.6 °C 30.3 in /  1026.6 hPa SW 2 mph /  3.2 km/h 10 mph /  16.1 km/h 93 % 0 in /  0.0 mm
10:27 49.8 °F /  9.9 °C 47.7 °F /  8.7 °C 30.3 in /  1026.6 hPa WSW 6 mph /  9.7 km/h 11 mph /  17.7 km/h 92 % 0 in /  0.0 mm
10:32 50.2 °F /  10.1 °C 48 °F /  8.9 °C 30.3 in /  1026.6 hPa WNW 7 mph /  11.3 km/h 11 mph /  17.7 km/h 92 % 0 in /  0.0 mm
10:37 50.4 °F /  10.2 °C 48.2 °F /  9.0 °C 30.3 in /  1026.6 hPa WSW 5 mph /  8.0 km/h 12 mph /  19.3 km/h 92 % 0 in /  0.0 mm
10:42 50.4 °F /  10.2 °C 47.8 °F /  8.8 °C 30.3 in /  1026.6 hPa WSW 13 mph /  20.9 km/h 13 mph /  20.9 km/h 91 % 0 in /  0.0 mm
10:47 50.5 °F /  10.3 °C 48.4 °F /  9.1 °C 30.3 in /  1026.3 hPa WSW 8 mph /  12.9 km/h 18 mph /  29.0 km/h 92 % 0 in /  0.0 mm
10:52 50.7 °F /  10.4 °C 48.2 °F /  9.0 °C 30.3 in /  1026.3 hPa SSW 4 mph /  6.4 km/h 18 mph /  29.0 km/h 91 % 0 in /  0.0 mm
10:57 50.9 °F /  10.5 °C 48 °F /  8.9 °C 30.3 in /  1026.3 hPa WSW 8 mph /  12.9 km/h 18 mph /  29.0 km/h 90 % 0 in /  0.0 mm
11:02 51.1 °F /  10.6 °C 48.2 °F /  9.0 °C 30.3 in /  1026.3 hPa WSW 9 mph /  14.5 km/h 15 mph /  24.1 km/h 90 % 0 in /  0.0 mm
11:12 51.4 °F /  10.8 °C 48.6 °F /  9.2 °C 30.3 in /  1026.3 hPa WSW 10 mph /  16.1 km/h 15 mph /  24.1 km/h 90 % 0 in /  0.0 mm
11:17 51.6 °F /  10.9 °C 48.6 °F /  9.2 °C 30.3 in /  1026.3 hPa SW 7 mph /  11.3 km/h 15 mph /  24.1 km/h 89 % 0 in /  0.0 mm
11:22 51.6 °F /  10.9 °C 48.2 °F /  9.0 °C 30.3 in /  1026.3 hPa SW 7 mph /  11.3 km/h 16 mph /  25.7 km/h 88 % 0 in /  0.0 mm
11:27 52.2 °F /  11.2 °C 48.7 °F /  9.3 °C 30.3 in /  1026.3 hPa SW 6 mph /  9.7 km/h 18 mph /  29.0 km/h 88 % 0 in /  0.0 mm
11:32 52.3 °F /  11.3 °C 48.6 °F /  9.2 °C 30.3 in /  1026.3 hPa WSW 9 mph /  14.5 km/h 18 mph /  29.0 km/h 87 % 0 in /  0.0 mm
11:37 52.9 °F /  11.6 °C 49.1 °F /  9.5 °C 30.3 in /  1026.3 hPa SW 4 mph /  6.4 km/h 18 mph /  29.0 km/h 87 % 0 in /  0.0 mm
11:42 52.9 °F /  11.6 °C 48.7 °F /  9.3 °C 30.3 in /  1026.3 hPa West 13 mph /  20.9 km/h 14 mph /  22.5 km/h 86 % 0 in /  0.0 mm
11:47 52.9 °F /  11.6 °C 48.2 °F /  9.0 °C 30.3 in /  1026.3 hPa WSW 11 mph /  17.7 km/h 18 mph /  29.0 km/h 84 % 0 in /  0.0 mm
11:52 53.1 °F /  11.7 °C 48.4 °F /  9.1 °C 30.3 in /  1026.3 hPa NW 6 mph /  9.7 km/h 18 mph /  29.0 km/h 84 % 0 in /  0.0 mm
11:57 53.2 °F /  11.8 °C 48.2 °F /  9.0 °C 30.3 in /  1026.3 hPa West 15 mph /  24.1 km/h 19 mph /  30.6 km/h 83 % 0 in /  0.0 mm
12:02 53.2 °F /  11.8 °C 47.8 °F /  8.8 °C 30.3 in /  1026.3 hPa West 13 mph /  20.9 km/h 22 mph /  35.4 km/h 82 % 0 in /  0.0 mm
12:07 53.6 °F /  12.0 °C 48.2 °F /  9.0 °C 30.3 in /  1026.3 hPa WSW 12 mph /  19.3 km/h 22 mph /  35.4 km/h 82 % 0 in /  0.0 mm
12:12 53.8 °F /  12.1 °C 48 °F /  8.9 °C 30.3 in /  1026.3 hPa West 11 mph /  17.7 km/h 21 mph /  33.8 km/h 81 % 0 in /  0.0 mm
12:17 54 °F /  12.2 °C 48.9 °F /  9.4 °C 30.3 in /  1026.3 hPa WSW 8 mph /  12.9 km/h 22 mph /  35.4 km/h 83 % 0 in /  0.0 mm
12:22 54.3 °F /  12.4 °C 48.6 °F /  9.2 °C 30.3 in /  1026.3 hPa West 15 mph /  24.1 km/h 22 mph /  35.4 km/h 81 % 0 in /  0.0 mm
12:27 54.3 °F /  12.4 °C 48.6 °F /  9.2 °C 30.3 in /  1026.3 hPa SW 10 mph /  16.1 km/h 23 mph /  37.0 km/h 81 % 0 in /  0.0 mm
12:32 54.3 °F /  12.4 °C 48.2 °F /  9.0 °C 30.3 in /  1026.6 hPa SW 11 mph /  17.7 km/h 23 mph /  37.0 km/h 80 % 0 in /  0.0 mm
12:37 54.9 °F /  12.7 °C 49.1 °F /  9.5 °C 30.3 in /  1026.3 hPa West 17 mph /  27.4 km/h 23 mph /  37.0 km/h 81 % 0 in /  0.0 mm
12:42 54.7 °F /  12.6 °C 48.4 °F /  9.1 °C 30.3 in /  1026.6 hPa WSW 20 mph /  32.2 km/h 22 mph /  35.4 km/h 79 % 0 in /  0.0 mm
12:47 54.7 °F /  12.6 °C 48.6 °F /  9.2 °C 30.3 in /  1026.6 hPa West 14 mph /  22.5 km/h 23 mph /  37.0 km/h 80 % 0 in /  0.0 mm
12:52 54.7 °F /  12.6 °C 48.9 °F /  9.4 °C 30.3 in /  1026.6 hPa West 8 mph /  12.9 km/h 23 mph /  37.0 km/h 81 % 0 in /  0.0 mm
12:57 54.5 °F /  12.5 °C 48.4 °F /  9.1 °C 30.3 in /  1026.6 hPa West 14 mph /  22.5 km/h 23 mph /  37.0 km/h 80 % 0 in /  0.0 mm
13:02 54.5 °F /  12.5 °C 48.4 °F /  9.1 °C 30.3 in /  1026.6 hPa West 4 mph /  6.4 km/h 20 mph /  32.2 km/h 80 % 0 in /  0.0 mm
13:12 54.9 °F /  12.7 °C 48.2 °F /  9.0 °C 30.3 in /  1026.6 hPa West 6 mph /  9.7 km/h 17 mph /  27.4 km/h 78 % 0 in /  0.0 mm
13:17 55 °F /  12.8 °C 48.4 °F /  9.1 °C 30.3 in /  1026.6 hPa SSW 8 mph /  12.9 km/h 15 mph /  24.1 km/h 78 % 0 in /  0.0 mm
13:22 54.9 °F /  12.7 °C 47.5 °F /  8.6 °C 30.3 in /  1026.6 hPa WSW 10 mph /  16.1 km/h 14 mph /  22.5 km/h 76 % 0 in /  0.0 mm
13:27 55 °F /  12.8 °C 48.4 °F /  9.1 °C 30.3 in /  1026.6 hPa SW 8 mph /  12.9 km/h 16 mph /  25.7 km/h 78 % 0 in /  0.0 mm
13:32 55.2 °F /  12.9 °C 47.8 °F /  8.8 °C 30.3 in /  1026.6 hPa West 5 mph /  8.0 km/h 16 mph /  25.7 km/h 76 % 0 in /  0.0 mm
13:37 55.4 °F /  13.0 °C 48.4 °F /  9.1 °C 30.3 in /  1026.6 hPa WSW 5 mph /  8.0 km/h 16 mph /  25.7 km/h 77 % 0 in /  0.0 mm
13:42 55.8 °F /  13.2 °C 48.4 °F /  9.1 °C 30.3 in /  1026.6 hPa West 5 mph /  8.0 km/h 15 mph /  24.1 km/h 76 % 0 in /  0.0 mm
13:47 55.8 °F /  13.2 °C 48 °F /  8.9 °C 30.3 in /  1026.6 hPa WSW 8 mph /  12.9 km/h 15 mph /  24.1 km/h 75 % 0 in /  0.0 mm
13:52 55.8 °F /  13.2 °C 48.4 °F /  9.1 °C 30.3 in /  1026.6 hPa West 13 mph /  20.9 km/h 17 mph /  27.4 km/h 76 % 0 in /  0.0 mm
13:57 55.6 °F /  13.1 °C 47.5 °F /  8.6 °C 30.3 in /  1026.3 hPa West 9 mph /  14.5 km/h 17 mph /  27.4 km/h 74 % 0 in /  0.0 mm
14:02 55.8 °F /  13.2 °C 48 °F /  8.9 °C 30.3 in /  1026.3 hPa SW 5 mph /  8.0 km/h 14 mph /  22.5 km/h 75 % 0 in /  0.0 mm
14:12 56.1 °F /  13.4 °C 47.7 °F /  8.7 °C 30.3 in /  1026.3 hPa WSW 11 mph /  17.7 km/h 14 mph /  22.5 km/h 73 % 0 in /  0.0 mm
14:17 56.1 °F /  13.4 °C 48 °F /  8.9 °C 30.3 in /  1026.3 hPa WSW 10 mph /  16.1 km/h 16 mph /  25.7 km/h 74 % 0 in /  0.0 mm
14:22 56.5 °F /  13.6 °C 48.4 °F /  9.1 °C 30.3 in /  1026.3 hPa WSW 6 mph /  9.7 km/h 16 mph /  25.7 km/h 74 % 0 in /  0.0 mm
14:27 56.3 °F /  13.5 °C 47.5 °F /  8.6 °C 30.3 in /  1026.0 hPa West 9 mph /  14.5 km/h 16 mph /  25.7 km/h 72 % 0 in /  0.0 mm
14:32 56.5 °F /  13.6 °C 47.5 °F /  8.6 °C 30.3 in /  1026.3 hPa West 7 mph /  11.3 km/h 16 mph /  25.7 km/h 72 % 0 in /  0.0 mm
14:37 56.7 °F /  13.7 °C 48 °F /  8.9 °C 30.3 in /  1026.0 hPa SW 7 mph /  11.3 km/h 16 mph /  25.7 km/h 73 % 0 in /  0.0 mm
14:42 56.5 °F /  13.6 °C 47.1 °F /  8.4 °C 30.3 in /  1026.3 hPa West 10 mph /  16.1 km/h 15 mph /  24.1 km/h 71 % 0 in /  0.0 mm
14:47 56.1 °F /  13.4 °C 46 °F /  7.8 °C 30.3 in /  1026.0 hPa WSW 7 mph /  11.3 km/h 15 mph /  24.1 km/h 69 % 0 in /  0.0 mm
14:52 55.9 °F /  13.3 °C 46.2 °F /  7.9 °C 30.3 in /  1026.0 hPa West 9 mph /  14.5 km/h 17 mph /  27.4 km/h 70 % 0 in /  0.0 mm
14:57 56.1 °F /  13.4 °C 46.4 °F /  8.0 °C 30.3 in /  1026.0 hPa West 7 mph /  11.3 km/h 17 mph /  27.4 km/h 70 % 0 in /  0.0 mm
15:02 56.3 °F /  13.5 °C 47.5 °F /  8.6 °C 30.3 in /  1026.0 hPa SW 7 mph /  11.3 km/h 17 mph /  27.4 km/h 72 % 0 in /  0.0 mm
15:12 56.5 °F /  13.6 °C 46.8 °F /  8.2 °C 30.3 in /  1026.0 hPa SSW 10 mph /  16.1 km/h 13 mph /  20.9 km/h 70 % 0 in /  0.0 mm
15:17 56.5 °F /  13.6 °C 47.1 °F /  8.4 °C 30.3 in /  1026.0 hPa SW 5 mph /  8.0 km/h 13 mph /  20.9 km/h 71 % 0 in /  0.0 mm
15:22 56.7 °F /  13.7 °C 46.9 °F /  8.3 °C 30.3 in /  1026.0 hPa West 6 mph /  9.7 km/h 12 mph /  19.3 km/h 70 % 0 in /  0.0 mm
15:32 56.8 °F /  13.8 °C 47.5 °F /  8.6 °C 30.3 in /  1026.0 hPa WSW 5 mph /  8.0 km/h 12 mph /  19.3 km/h 71 % 0 in /  0.0 mm
15:37 56.8 °F /  13.8 °C 46.8 °F /  8.2 °C 30.3 in /  1026.0 hPa WSW 5 mph /  8.0 km/h 13 mph /  20.9 km/h 69 % 0 in /  0.0 mm
15:42 56.8 °F /  13.8 °C 46.8 °F /  8.2 °C 30.3 in /  1026.0 hPa SW 7 mph /  11.3 km/h 14 mph /  22.5 km/h 69 % 0 in /  0.0 mm
15:47 57 °F /  13.9 °C 47.3 °F /  8.5 °C 30.3 in /  1026.0 hPa West 9 mph /  14.5 km/h 14 mph /  22.5 km/h 70 % 0 in /  0.0 mm
15:52 57 °F /  13.9 °C 47.3 °F /  8.5 °C 30.3 in /  1026.0 hPa SW 6 mph /  9.7 km/h 14 mph /  22.5 km/h 70 % 0 in /  0.0 mm
15:57 56.8 °F /  13.8 °C 47.1 °F /  8.4 °C 30.3 in /  1026.0 hPa West 6 mph /  9.7 km/h 13 mph /  20.9 km/h 70 % 0 in /  0.0 mm
16:02 56.7 °F /  13.7 °C 47.3 °F /  8.5 °C 30.3 in /  1026.0 hPa WSW 9 mph /  14.5 km/h 13 mph /  20.9 km/h 71 % 0 in /  0.0 mm
16:12 57 °F /  13.9 °C 47.3 °F /  8.5 °C 30.3 in /  1026.0 hPa SSW 7 mph /  11.3 km/h 14 mph /  22.5 km/h 70 % 0 in /  0.0 mm
16:17 56.8 °F /  13.8 °C 47.8 °F /  8.8 °C 30.3 in /  1026.0 hPa WNW 6 mph /  9.7 km/h 15 mph /  24.1 km/h 72 % 0 in /  0.0 mm
16:22 57 °F /  13.9 °C 48 °F /  8.9 °C 30.3 in /  1026.0 hPa WNW 11 mph /  17.7 km/h 16 mph /  25.7 km/h 72 % 0 in /  0.0 mm
16:32 56.8 °F /  13.8 °C 47.8 °F /  8.8 °C 30.3 in /  1026.0 hPa SW 6 mph /  9.7 km/h 13 mph /  20.9 km/h 72 % 0 in /  0.0 mm
16:37 56.8 °F /  13.8 °C 47.8 °F /  8.8 °C 30.3 in /  1026.0 hPa WSW 4 mph /  6.4 km/h 12 mph /  19.3 km/h 72 % 0 in /  0.0 mm
16:42 56.8 °F /  13.8 °C 47.8 °F /  8.8 °C 30.3 in /  1026.0 hPa SW 5 mph /  8.0 km/h 12 mph /  19.3 km/h 72 % 0 in /  0.0 mm
16:52 56.5 °F /  13.6 °C 48 °F /  8.9 °C 30.3 in /  1026.0 hPa West 8 mph /  12.9 km/h 12 mph /  19.3 km/h 73 % 0 in /  0.0 mm
16:57 56.5 °F /  13.6 °C 48.4 °F /  9.1 °C 30.3 in /  1026.0 hPa West 5 mph /  8.0 km/h 12 mph /  19.3 km/h 74 % 0 in /  0.0 mm
17:02 56.5 °F /  13.6 °C 48 °F /  8.9 °C 30.3 in /  1026.0 hPa WSW 6 mph /  9.7 km/h 12 mph /  19.3 km/h 73 % 0 in /  0.0 mm
17:12 56.5 °F /  13.6 °C 48.4 °F /  9.1 °C 30.3 in /  1026.0 hPa West 4 mph /  6.4 km/h 10 mph /  16.1 km/h 74 % 0 in /  0.0 mm
17:17 56.3 °F /  13.5 °C 48.2 °F /  9.0 °C 30.3 in /  1026.0 hPa WSW 5 mph /  8.0 km/h 9 mph /  14.5 km/h 74 % 0 in /  0.0 mm
17:22 56.3 °F /  13.5 °C 48.6 °F /  9.2 °C 30.3 in /  1026.0 hPa WNW 1 mph /  1.6 km/h 10 mph /  16.1 km/h 75 % 0 in /  0.0 mm
17:27 56.1 °F /  13.4 °C 48 °F /  8.9 °C 30.3 in /  1026.0 hPa WNW 3 mph /  4.8 km/h 10 mph /  16.1 km/h 74 % 0 in /  0.0 mm
17:32 56.1 °F /  13.4 °C 48.4 °F /  9.1 °C 30.3 in /  1026.0 hPa WSW 4 mph /  6.4 km/h 10 mph /  16.1 km/h 75 % 0 in /  0.0 mm
17:42 56.1 °F /  13.4 °C 48.4 °F /  9.1 °C 30.3 in /  1026.3 hPa WNW 2 mph /  3.2 km/h 6 mph /  9.7 km/h 75 % 0 in /  0.0 mm
17:47 56.1 °F /  13.4 °C 48 °F /  8.9 °C 30.3 in /  1026.3 hPa WSW 2 mph /  3.2 km/h 7 mph /  11.3 km/h 74 % 0 in /  0.0 mm
17:52 56.1 °F /  13.4 °C 48 °F /  8.9 °C 30.3 in /  1026.3 hPa WNW 2 mph /  3.2 km/h 7 mph /  11.3 km/h 74 % 0 in /  0.0 mm
17:57 56.1 °F /  13.4 °C 48.4 °F /  9.1 °C 30.3 in /  1026.3 hPa West 4 mph /  6.4 km/h 8 mph /  12.9 km/h 75 % 0 in /  0.0 mm
18:02 56.1 °F /  13.4 °C 48.4 °F /  9.1 °C 30.3 in /  1026.3 hPa WNW 3 mph /  4.8 km/h 8 mph /  12.9 km/h 75 % 0 in /  0.0 mm
18:07 55.9 °F /  13.3 °C 48.2 °F /  9.0 °C 30.3 in /  1026.3 hPa West 1 mph /  1.6 km/h 8 mph /  12.9 km/h 75 % 0 in /  0.0 mm
18:12 55.9 °F /  13.3 °C 48.6 °F /  9.2 °C 30.3 in /  1026.3 hPa WNW 2 mph /  3.2 km/h 8 mph /  12.9 km/h 76 % 0 in /  0.0 mm
18:17 55.9 °F /  13.3 °C 48.6 °F /  9.2 °C 30.3 in /  1026.3 hPa Calm   4 mph /  6.4 km/h 76 % 0 in /  0.0 mm
18:27 55.8 °F /  13.2 °C 48.4 °F /  9.1 °C 30.3 in /  1026.3 hPa Calm   3 mph /  4.8 km/h 76 % 0 in /  0.0 mm
18:32 55.8 °F /  13.2 °C 48.7 °F /  9.3 °C 30.3 in /  1026.3 hPa Calm   3 mph /  4.8 km/h 77 % 0 in /  0.0 mm
18:37 55.6 °F /  13.1 °C 48.6 °F /  9.2 °C 30.3 in /  1026.6 hPa Calm   3 mph /  4.8 km/h 77 % 0 in /  0.0 mm
18:42 55.4 °F /  13.0 °C 48.4 °F /  9.1 °C 30.3 in /  1026.6 hPa Calm   3 mph /  4.8 km/h 77 % 0 in /  0.0 mm
18:47 55.2 °F /  12.9 °C 48.6 °F /  9.2 °C 30.3 in /  1026.6 hPa West 1 mph /  1.6 km/h 2 mph /  3.2 km/h 78 % 0 in /  0.0 mm
18:52 55.2 °F /  12.9 °C 48.7 °F /  9.3 °C 30.3 in /  1026.6 hPa West 1 mph /  1.6 km/h 2 mph /  3.2 km/h 79 % 0 in /  0.0 mm
18:57 55.2 °F /  12.9 °C 48.7 °F /  9.3 °C 30.3 in /  1026.6 hPa West 1 mph /  1.6 km/h 2 mph /  3.2 km/h 79 % 0 in /  0.0 mm
19:02 55 °F /  12.8 °C 48.6 °F /  9.2 °C 30.3 in /  1026.6 hPa WSW 2 mph /  3.2 km/h 2 mph /  3.2 km/h 79 % 0 in /  0.0 mm
19:12 55.2 °F /  12.9 °C 48.7 °F /  9.3 °C 30.3 in /  1026.6 hPa WNW 2 mph /  3.2 km/h 4 mph /  6.4 km/h 79 % 0 in /  0.0 mm
19:17 55 °F /  12.8 °C 48.6 °F /  9.2 °C 30.3 in /  1026.6 hPa West 2 mph /  3.2 km/h 4 mph /  6.4 km/h 79 % 0 in /  0.0 mm
19:22 55 °F /  12.8 °C 48.6 °F /  9.2 °C 30.3 in /  1026.6 hPa West 3 mph /  4.8 km/h 4 mph /  6.4 km/h 79 % 0 in /  0.0 mm
19:27 55 °F /  12.8 °C 48.6 °F /  9.2 °C 30.3 in /  1027.0 hPa WNW 2 mph /  3.2 km/h 5 mph /  8.0 km/h 79 % 0 in /  0.0 mm
19:32 55 °F /  12.8 °C 48.9 °F /  9.4 °C 30.3 in /  1027.0 hPa WNW 2 mph /  3.2 km/h 5 mph /  8.0 km/h 80 % 0 in /  0.0 mm
19:37 55 °F /  12.8 °C 48.9 °F /  9.4 °C 30.3 in /  1027.0 hPa WNW 1 mph /  1.6 km/h 4 mph /  6.4 km/h 80 % 0 in /  0.0 mm
19:42 54.9 °F /  12.7 °C 48.7 °F /  9.3 °C 30.3 in /  1027.3 hPa Calm   3 mph /  4.8 km/h 80 % 0 in /  0.0 mm
19:52 54.9 °F /  12.7 °C 48.7 °F /  9.3 °C 30.3 in /  1027.3 hPa Calm   2 mph /  3.2 km/h 80 % 0 in /  0.0 mm
19:57 54.9 °F /  12.7 °C 49.1 °F /  9.5 °C 30.3 in /  1027.3 hPa WNW 2 mph /  3.2 km/h 5 mph /  8.0 km/h 81 % 0 in /  0.0 mm
20:02 54.7 °F /  12.6 °C 48.9 °F /  9.4 °C 30.3 in /  1027.3 hPa WNW 4 mph /  6.4 km/h 6 mph /  9.7 km/h 81 % 0 in /  0.0 mm
20:07 54.7 °F /  12.6 °C 48.9 °F /  9.4 °C 30.3 in /  1027.3 hPa WNW 5 mph /  8.0 km/h 6 mph /  9.7 km/h 81 % 0 in /  0.0 mm
20:12 54.7 °F /  12.6 °C 49.3 °F /  9.6 °C 30.4 in /  1027.7 hPa West 2 mph /  3.2 km/h 6 mph /  9.7 km/h 82 % 0 in /  0.0 mm
20:17 54.5 °F /  12.5 °C 49.1 °F /  9.5 °C 30.4 in /  1027.7 hPa WNW 2 mph /  3.2 km/h 6 mph /  9.7 km/h 82 % 0 in /  0.0 mm
20:22 54.3 °F /  12.4 °C 49.3 °F /  9.6 °C 30.4 in /  1027.7 hPa WNW 2 mph /  3.2 km/h 6 mph /  9.7 km/h 83 % 0 in /  0.0 mm
20:27 54.3 °F /  12.4 °C 49.3 °F /  9.6 °C 30.4 in /  1027.7 hPa WNW 3 mph /  4.8 km/h 4 mph /  6.4 km/h 83 % 0 in /  0.0 mm
20:32 54.1 °F /  12.3 °C 49.5 °F /  9.7 °C 30.4 in /  1027.7 hPa WNW 2 mph /  3.2 km/h 4 mph /  6.4 km/h 84 % 0 in /  0.0 mm
20:37 54.1 °F /  12.3 °C 49.5 °F /  9.7 °C 30.4 in /  1027.7 hPa NW 2 mph /  3.2 km/h 5 mph /  8.0 km/h 84 % 0 in /  0.0 mm
20:42 54.1 °F /  12.3 °C 49.5 °F /  9.7 °C 30.4 in /  1027.7 hPa West 2 mph /  3.2 km/h 5 mph /  8.0 km/h 84 % 0 in /  0.0 mm
20:47 54 °F /  12.2 °C 49.6 °F /  9.8 °C 30.4 in /  1027.7 hPa West 2 mph /  3.2 km/h 5 mph /  8.0 km/h 85 % 0 in /  0.0 mm
20:52 54 °F /  12.2 °C 49.6 °F /  9.8 °C 30.4 in /  1027.7 hPa West 1 mph /  1.6 km/h 5 mph /  8.0 km/h 85 % 0 in /  0.0 mm
20:57 54 °F /  12.2 °C 49.6 °F /  9.8 °C 30.4 in /  1027.7 hPa Calm   4 mph /  6.4 km/h 85 % 0 in /  0.0 mm
21:02 54 °F /  12.2 °C 49.6 °F /  9.8 °C 30.4 in /  1027.7 hPa Calm   4 mph /  6.4 km/h 85 % 0 in /  0.0 mm
21:12 53.8 °F /  12.1 °C 49.5 °F /  9.7 °C 30.4 in /  1027.7 hPa Calm   2 mph /  3.2 km/h 85 % 0 in /  0.0 mm
21:17 53.8 °F /  12.1 °C 49.6 °F /  9.8 °C 30.4 in /  1027.7 hPa Calm   2 mph /  3.2 km/h 86 % 0 in /  0.0 mm
21:22 53.8 °F /  12.1 °C 49.6 °F /  9.8 °C 30.4 in /  1027.7 hPa Calm   1 mph /  1.6 km/h 86 % 0 in /  0.0 mm
21:27 53.8 °F /  12.1 °C 49.6 °F /  9.8 °C 30.4 in /  1027.7 hPa Calm     86 % 0 in /  0.0 mm
21:32 53.6 °F /  12.0 °C 49.5 °F /  9.7 °C 30.4 in /  1027.7 hPa Calm     86 % 0 in /  0.0 mm
21:37 53.6 °F /  12.0 °C 49.5 °F /  9.7 °C 30.4 in /  1027.7 hPa Calm     86 % 0 in /  0.0 mm
21:42 53.6 °F /  12.0 °C 49.5 °F /  9.7 °C 30.3 in /  1027.3 hPa Calm     86 % 0 in /  0.0 mm
21:47 53.4 °F /  11.9 °C 49.3 °F /  9.6 °C 30.3 in /  1027.3 hPa Calm     86 % 0 in /  0.0 mm
21:52 53.4 °F /  11.9 °C 49.3 °F /  9.6 °C 30.4 in /  1027.7 hPa Calm     86 % 0 in /  0.0 mm
21:57 53.4 °F /  11.9 °C 49.6 °F /  9.8 °C 30.4 in /  1027.7 hPa Calm     87 % 0 in /  0.0 mm
22:02 53.4 °F /  11.9 °C 49.6 °F /  9.8 °C 30.4 in /  1027.7 hPa Calm     87 % 0 in /  0.0 mm
22:12 53.4 °F /  11.9 °C 49.6 °F /  9.8 °C 30.4 in /  1027.7 hPa WSW 2 mph /  3.2 km/h 2 mph /  3.2 km/h 87 % 0 in /  0.0 mm
22:17 53.4 °F /  11.9 °C 49.6 °F /  9.8 °C 30.4 in /  1027.7 hPa WNW 1 mph /  1.6 km/h 3 mph /  4.8 km/h 87 % 0 in /  0.0 mm
22:22 53.4 °F /  11.9 °C 49.6 °F /  9.8 °C 30.4 in /  1027.7 hPa Calm   3 mph /  4.8 km/h 87 % 0 in /  0.0 mm
22:27 53.4 °F /  11.9 °C 49.6 °F /  9.8 °C 30.3 in /  1027.3 hPa West 1 mph /  1.6 km/h 3 mph /  4.8 km/h 87 % 0 in /  0.0 mm
22:32 53.4 °F /  11.9 °C 49.6 °F /  9.8 °C 30.3 in /  1027.3 hPa WSW 2 mph /  3.2 km/h 2 mph /  3.2 km/h 87 % 0 in /  0.0 mm
22:42 53.2 °F /  11.8 °C 49.8 °F /  9.9 °C 30.3 in /  1027.3 hPa Calm   2 mph /  3.2 km/h 88 % 0 in /  0.0 mm
22:47 53.2 °F /  11.8 °C 49.8 °F /  9.9 °C 30.3 in /  1027.3 hPa Calm   2 mph /  3.2 km/h 88 % 0 in /  0.0 mm
22:52 53.2 °F /  11.8 °C 49.8 °F /  9.9 °C 30.3 in /  1027.3 hPa Calm   1 mph /  1.6 km/h 88 % 0 in /  0.0 mm
22:57 53.1 °F /  11.7 °C 49.6 °F /  9.8 °C 30.3 in /  1027.3 hPa WSW 1 mph /  1.6 km/h 1 mph /  1.6 km/h 88 % 0 in /  0.0 mm
23:02 53.1 °F /  11.7 °C 49.6 °F /  9.8 °C 30.3 in /  1027.3 hPa Calm   3 mph /  4.8 km/h 88 % 0 in /  0.0 mm
23:12 53.1 °F /  11.7 °C 49.6 °F /  9.8 °C 30.3 in /  1027.3 hPa Calm   3 mph /  4.8 km/h 88 % 0 in /  0.0 mm
23:17 53.1 °F /  11.7 °C 49.8 °F /  9.9 °C 30.3 in /  1027.3 hPa Calm   2 mph /  3.2 km/h 89 % 0 in /  0.0 mm
23:22 53.1 °F /  11.7 °C 49.6 °F /  9.8 °C 30.3 in /  1027.3 hPa Calm   2 mph /  3.2 km/h 88 % 0 in /  0.0 mm
23:27 52.9 °F /  11.6 °C 49.6 °F /  9.8 °C 30.3 in /  1027.3 hPa Calm   1 mph /  1.6 km/h 89 % 0 in /  0.0 mm
23:32 52.9 °F /  11.6 °C 49.6 °F /  9.8 °C 30.3 in /  1027.3 hPa Calm   1 mph /  1.6 km/h 89 % 0 in /  0.0 mm
23:37 52.7 °F /  11.5 °C 49.5 °F /  9.7 °C 30.3 in /  1027.3 hPa Calm   1 mph /  1.6 km/h 89 % 0 in /  0.0 mm
23:42 52.5 °F /  11.4 °C 49.5 °F /  9.7 °C 30.3 in /  1027.3 hPa Calm   1 mph /  1.6 km/h 89 % 0 in /  0.0 mm
23:47 52.5 °F /  11.4 °C 49.5 °F /  9.7 °C 30.3 in /  1027.3 hPa Calm   1 mph /  1.6 km/h 89 % 0 in /  0.0 mm
23:52 52.5 °F /  11.4 °C 49.5 °F /  9.7 °C 30.3 in /  1027.3 hPa Calm     89 % 0 in /  0.0 mm
23:57 52.3 °F /  11.3 °C 49.5 °F /  9.7 °C 30.3 in /  1027.3 hPa Calm     90 % 0 in /  0.0 mm
Meteo18
Compliments of Weather Underground - 4 mb

Script developed by  Jim McMurry - jmcmurry@mwt.net Adapted for the template by  Wim van der Kuil - Leuven-Template.eu

You find our weather info also at:

European Weather Network

Weather Underground

Equipment we use:

Weather-station
Davis Vue

Weather-program
Meteohub

Weather-server
Raspberry PI 2 B+

Provider
1 and 1

Davis Vue

Meteohub

Raspberry PI 2 B+

1 and 1